createdAt,value
2019-05-07T00:02:36.036Z,7.57
2019-05-07T00:05:25.862Z,7.55
2019-05-07T00:07:56.231Z,7.53
2019-05-07T00:10:28.228Z,7.45
2019-05-07T00:12:58.599Z,7.43
2019-05-07T00:15:28.968Z,7.48
2019-05-07T00:17:59.421Z,7.48
2019-05-07T00:20:49.236Z,7.50
2019-05-07T00:23:39.004Z,7.49
2019-05-07T00:26:28.802Z,7.38
2019-05-07T00:29:18.590Z,7.39
2019-05-07T00:32:08.421Z,7.37
2019-05-07T00:43:32.374Z,7.26
2019-05-07T00:48:57.903Z,7.25
2019-05-07T00:51:47.199Z,7.18
2019-05-07T00:54:36.976Z,7.20
2019-05-07T00:57:26.729Z,7.24
2019-05-07T00:59:57.093Z,7.28
2019-05-07T01:02:27.428Z,7.22
2019-05-07T01:04:57.784Z,7.26
2019-05-07T01:07:28.124Z,7.30
2019-05-07T01:10:02.232Z,7.24
2019-05-07T01:12:53.134Z,7.10
2019-05-07T01:15:46.779Z,7.07
2019-05-07T01:18:18.823Z,7.01
2019-05-07T01:20:49.209Z,7.04
2019-05-07T01:23:19.560Z,7.07
2019-05-07T01:25:52.593Z,7.13
2019-05-07T01:28:53.515Z,7.09
2019-05-07T01:37:23.205Z,7.06
2019-05-07T01:40:05.432Z,7.03
2019-05-07T01:42:36.693Z,6.97
2019-05-07T01:45:27.238Z,6.94
2019-05-07T01:47:57.592Z,6.95
2019-05-07T01:50:47.320Z,6.93
2019-05-07T01:53:17.676Z,6.88
2019-05-07T01:55:48.054Z,6.93
2019-05-07T01:58:37.829Z,6.92
2019-05-07T02:01:27.575Z,6.80
2019-05-07T02:04:36.214Z,6.84
2019-05-07T02:07:25.439Z,6.79
2019-05-07T02:10:34.302Z,6.76
2019-05-07T02:13:24.051Z,6.72
2019-05-07T02:16:00.993Z,6.78
2019-05-07T02:18:45.901Z,6.79
2019-05-07T02:21:35.705Z,6.70
2019-05-07T02:24:25.459Z,6.67
2019-05-07T02:27:15.227Z,6.61
2019-05-07T02:29:45.611Z,6.59
2019-05-07T02:32:35.404Z,6.62
2019-05-07T02:35:25.155Z,6.61
2019-05-07T02:38:34.156Z,6.60
2019-05-07T02:44:14.074Z,6.54
2019-05-07T02:53:06.655Z,6.44
2019-05-07T02:55:57.367Z,6.33
2019-05-07T02:58:27.715Z,6.27
2019-05-07T03:04:25.060Z,6.15
2019-05-07T03:07:05.245Z,6.23
2019-05-07T03:09:54.987Z,6.32
2019-05-07T03:12:25.364Z,6.18
2019-05-07T03:14:55.692Z,6.07
2019-05-07T03:17:26.041Z,6.18
2019-05-07T03:25:56.041Z,6.19
2019-05-07T03:28:26.585Z,6.05
2019-05-07T03:34:25.556Z,6.13
2019-05-07T03:39:58.444Z,6.10
2019-05-07T03:45:58.303Z,6.15
2019-05-07T03:48:32.988Z,6.09
2019-05-07T03:51:13.363Z,6.13
2019-05-07T03:53:56.487Z,6.18
2019-05-07T03:56:26.837Z,6.18
2019-05-07T03:58:57.180Z,6.10
2019-05-07T04:01:27.552Z,6.13
2019-05-07T04:03:57.892Z,6.22
2019-05-07T04:06:47.654Z,6.25
2019-05-07T04:09:17.981Z,6.34
2019-05-07T04:11:48.345Z,6.36
2019-05-07T04:14:18.685Z,6.33
2019-05-07T04:16:49.083Z,6.29
2019-05-07T04:19:38.819Z,6.35
2019-05-07T04:22:09.192Z,6.35
2019-05-07T04:25:17.799Z,6.37
2019-05-07T04:28:14.177Z,6.42
2019-05-07T04:30:44.580Z,6.53
2019-05-07T04:38:48.931Z,6.71
2019-05-07T04:41:38.800Z,6.73
2019-05-07T04:44:09.145Z,6.74
2019-05-07T04:46:43.501Z,6.81
2019-05-07T04:49:23.832Z,6.84
2019-05-07T04:55:03.668Z,7.31
2019-05-07T04:57:53.314Z,7.50
2019-05-07T05:00:34.905Z,7.54
2019-05-07T05:03:24.415Z,7.80
2019-05-07T05:06:14.225Z,8.07
2019-05-07T05:09:04.292Z,8.17
2019-05-07T05:11:43.894Z,8.24
2019-05-07T05:14:25.048Z,8.20
2019-05-07T05:16:55.406Z,8.44
2019-05-07T05:19:45.141Z,8.42
2019-05-07T05:25:33.262Z,8.35
2019-05-07T05:28:03.620Z,8.44
2019-05-07T05:30:52.941Z,8.34
2019-05-07T05:33:42.720Z,8.52
2019-05-07T05:36:13.129Z,8.53
2019-05-07T05:38:43.470Z,8.46
2019-05-07T05:41:13.841Z,8.49
2019-05-07T05:44:22.835Z,8.65
2019-05-07T05:46:53.239Z,8.82
2019-05-07T05:49:23.634Z,8.79
2019-05-07T05:52:14.480Z,8.98
2019-05-07T06:00:59.701Z,9.11
2019-05-07T06:03:48.950Z,9.04
2019-05-07T06:07:10.489Z,9.07
2019-05-07T06:12:56.888Z,9.00
2019-05-07T06:16:05.548Z,8.93
2019-05-07T06:18:54.850Z,9.15
2019-05-07T06:22:03.496Z,9.38
2019-05-07T06:24:59.697Z,9.41
2019-05-07T06:27:32.391Z,9.25
2019-05-07T06:30:13.798Z,9.52
2019-05-07T06:32:44.656Z,9.46
2019-05-07T06:41:15.800Z,9.74
2019-05-07T06:43:52.933Z,9.95
2019-05-07T06:46:23.338Z,9.85
2019-05-07T06:48:55.454Z,9.84
2019-05-07T06:51:47.793Z,9.93
2019-05-07T06:54:28.442Z,10.03
2019-05-07T06:56:58.828Z,10.03
2019-05-07T06:59:48.157Z,9.86
2019-05-07T07:02:56.807Z,9.95
2019-05-07T07:06:05.541Z,10.12
2019-05-07T07:14:22.725Z,9.93
2019-05-07T07:17:04.437Z,10.02
2019-05-07T07:19:36.192Z,10.07
2019-05-07T07:22:26.234Z,10.05
2019-05-07T07:24:56.585Z,10.10
2019-05-07T07:27:26.944Z,10.20
2019-05-07T07:30:16.240Z,10.54
2019-05-07T07:35:32.125Z,10.67
2019-05-07T07:38:32.850Z,10.54
2019-05-07T07:41:32.788Z,10.62
2019-05-07T07:44:03.196Z,10.69
2019-05-07T07:46:33.598Z,10.88
2019-05-07T07:49:23.377Z,11.11
2019-05-07T07:51:53.774Z,11.10
2019-05-07T07:54:43.511Z,11.07
2019-05-07T07:57:32.802Z,11.27
2019-05-07T08:00:23.385Z,11.32
2019-05-07T08:03:02.633Z,11.60
2019-05-07T08:05:33.047Z,11.51
2019-05-07T08:08:03.518Z,11.30
2019-05-07T08:10:33.870Z,11.57
2019-05-07T08:13:23.641Z,11.81
2019-05-07T08:15:54.006Z,12.00
2019-05-07T08:21:08.038Z,11.94
2019-05-07T08:23:50.206Z,11.67
2019-05-07T08:26:39.980Z,11.69
2019-05-07T08:29:11.881Z,11.86
2019-05-07T08:32:22.323Z,12.07
2019-05-07T08:38:02.357Z,12.01
2019-05-07T08:40:45.060Z,11.88
2019-05-07T08:43:15.417Z,11.93
2019-05-07T08:46:04.669Z,11.96
2019-05-07T08:51:35.449Z,12.33
2019-05-07T08:54:07.510Z,12.70
2019-05-07T08:59:43.695Z,12.57
2019-05-07T09:02:32.849Z,12.65
2019-05-07T09:05:03.250Z,12.64
2019-05-07T09:07:52.991Z,12.50
2019-05-07T09:10:42.774Z,12.14
2019-05-07T09:13:13.135Z,12.03
2019-05-07T09:15:43.511Z,12.43
2019-05-07T09:18:33.231Z,12.07
2019-05-07T09:21:22.988Z,12.34
2019-05-07T09:24:12.757Z,12.50
2019-05-07T09:27:02.779Z,12.46
2019-05-07T09:29:59.081Z,12.63
2019-05-07T09:35:58.179Z,12.65
2019-05-07T09:38:28.551Z,12.62
2019-05-07T09:40:58.941Z,12.53
2019-05-07T09:43:48.709Z,12.43
2019-05-07T09:46:20.719Z,12.51
2019-05-07T09:49:03.119Z,12.58
2019-05-07T09:51:39.147Z,12.96
2019-05-07T09:54:09.530Z,12.77
2019-05-07T09:56:42.122Z,13.16
2019-05-07T09:59:24.876Z,13.12
2019-05-07T10:01:55.237Z,13.10
2019-05-07T10:04:45.069Z,12.73
2019-05-07T10:07:15.466Z,12.36
2019-05-07T10:16:12.678Z,12.49
2019-05-07T10:18:53.858Z,12.04
2019-05-07T10:21:25.914Z,12.02
2019-05-07T10:23:56.278Z,12.41
2019-05-07T10:29:29.151Z,12.95
2019-05-07T10:31:59.522Z,12.92
2019-05-07T10:37:32.089Z,12.72
2019-05-07T10:43:24.711Z,12.75
2019-05-07T10:46:33.330Z,12.52
2019-05-07T10:52:27.677Z,13.69
2019-05-07T10:55:00.049Z,13.69
2019-05-07T10:57:42.224Z,14.11
2019-05-07T11:03:44.949Z,14.77
2019-05-07T11:06:34.733Z,14.41
2019-05-07T11:09:24.505Z,13.77
2019-05-07T11:12:14.281Z,13.06
2019-05-07T11:15:04.320Z,13.14
2019-05-07T11:20:32.043Z,12.75
2019-05-07T11:23:13.857Z,12.81
2019-05-07T11:26:03.641Z,13.15
2019-05-07T11:28:53.412Z,13.28
2019-05-07T11:31:43.199Z,13.78
2019-05-07T11:37:32.661Z,14.41
2019-05-07T11:43:44.075Z,14.73
2019-05-07T11:46:52.810Z,14.74
2019-05-07T11:50:03.197Z,14.95
2019-05-07T11:55:38.980Z,14.41
2019-05-07T11:58:09.399Z,13.90
2019-05-07T12:00:44.349Z,13.91
2019-05-07T12:03:16.374Z,14.36
2019-05-07T12:05:46.758Z,14.25
2019-05-07T12:08:17.125Z,14.16
2019-05-07T12:10:47.515Z,13.99
2019-05-07T12:13:18.082Z,14.31
2019-05-07T12:15:48.603Z,14.75
2019-05-07T12:18:38.410Z,14.84
2019-05-07T12:21:18.299Z,14.36
2019-05-07T12:24:02.101Z,14.55
2019-05-07T12:29:27.519Z,14.27
2019-05-07T12:32:25.158Z,14.61
2019-05-07T12:35:17.173Z,14.79
2019-05-07T12:37:49.531Z,15.03
2019-05-07T12:40:32.632Z,14.69
2019-05-07T12:43:22.385Z,15.09
2019-05-07T12:46:12.292Z,14.76
2019-05-07T12:48:42.743Z,14.85
2019-05-07T12:51:13.127Z,15.23
2019-05-07T12:56:51.988Z,16.14
2019-05-07T12:59:34.832Z,16.47
2019-05-07T13:05:18.922Z,14.66
2019-05-07T13:10:35.313Z,15.41
2019-05-07T13:13:05.788Z,15.04
2019-05-07T13:15:36.155Z,15.90
2019-05-07T13:18:25.923Z,17.15
2019-05-07T13:20:56.281Z,17.51
2019-05-07T13:23:26.640Z,17.86
2019-05-07T13:25:57.054Z,17.55
2019-05-07T13:28:27.470Z,17.34
2019-05-07T13:43:23.070Z,17.89
2019-05-07T13:46:18.945Z,19.04
2019-05-07T13:49:08.724Z,18.40
2019-05-07T13:51:39.218Z,18.22
2019-05-07T13:54:28.967Z,18.99
2019-05-07T13:56:59.309Z,17.91
2019-05-07T13:59:49.097Z,17.73
2019-05-07T14:02:38.869Z,18.44
2019-05-07T14:05:28.643Z,19.35
2019-05-07T14:11:02.847Z,18.60
2019-05-07T14:17:08.067Z,18.45
2019-05-07T14:19:38.462Z,19.18
2019-05-07T14:22:16.266Z,18.45
2019-05-07T14:24:52.949Z,19.97
2019-05-07T14:27:34.718Z,21.44
2019-05-07T14:30:05.751Z,22.23
2019-05-07T14:32:55.029Z,22.53
2019-05-07T14:35:53.966Z,23.60
2019-05-07T14:38:32.068Z,23.53
2019-05-07T14:41:14.064Z,23.05
2019-05-07T14:46:54.501Z,23.60
2019-05-07T14:49:36.232Z,22.94
2019-05-07T14:52:08.245Z,25.12
2019-05-07T14:54:38.599Z,25.05
2019-05-07T14:57:09.101Z,25.08
2019-05-07T14:59:39.460Z,24.42
2019-05-07T15:02:29.356Z,23.33
2019-05-07T15:08:21.968Z,23.88
2019-05-07T15:11:03.609Z,24.66
2019-05-07T15:13:53.417Z,25.36
2019-05-07T15:16:43.196Z,24.93
2019-05-07T15:19:13.670Z,19.89
2019-05-07T15:21:44.049Z,18.89
2019-05-07T15:24:33.843Z,18.24
2019-05-07T15:33:09.091Z,16.13
2019-05-07T15:35:58.878Z,16.21
2019-05-07T15:38:29.275Z,15.79
2019-05-07T15:41:19.110Z,16.30
2019-05-07T15:44:08.890Z,17.78
2019-05-07T15:49:42.776Z,22.99
2019-05-07T15:52:32.755Z,24.07
2019-05-07T15:55:03.209Z,25.41
2019-05-07T15:57:33.685Z,26.87
2019-05-07T16:05:35.715Z,25.64
2019-05-07T16:10:52.957Z,25.71
2019-05-07T16:16:30.773Z,26.67
2019-05-07T16:19:20.069Z,25.65
2019-05-07T16:24:56.516Z,24.93
2019-05-07T16:27:46.340Z,24.42
2019-05-07T16:30:16.829Z,24.67
2019-05-07T16:33:06.592Z,24.45
2019-05-07T16:35:39.349Z,25.33
2019-05-07T16:38:09.750Z,25.12
2019-05-07T16:40:59.714Z,24.13
2019-05-07T16:43:49.481Z,22.89
2019-05-07T16:46:39.271Z,22.19
2019-05-07T16:49:11.843Z,21.86
2019-05-07T16:51:52.841Z,21.65
2019-05-07T16:54:23.236Z,21.11
2019-05-07T16:57:33.671Z,20.59
2019-05-07T17:06:12.397Z,18.91
2019-05-07T17:09:06.955Z,18.52
2019-05-07T17:11:37.397Z,18.45
2019-05-07T17:14:07.776Z,18.68
2019-05-07T17:16:39.775Z,18.40
2019-05-07T17:19:29.506Z,18.78
2019-05-07T17:22:19.298Z,18.42
2019-05-07T17:24:51.914Z,17.60
2019-05-07T17:27:32.595Z,16.79
2019-05-07T17:30:03.085Z,16.12
2019-05-07T17:32:33.511Z,15.59
2019-05-07T17:35:23.309Z,15.27
2019-05-07T17:38:13.145Z,14.77
2019-05-07T17:40:43.511Z,14.43
2019-05-07T17:43:33.298Z,14.21
2019-05-07T17:46:23.172Z,13.92
2019-05-07T17:48:53.682Z,13.75
2019-05-07T17:51:42.945Z,13.47
2019-05-07T17:54:32.763Z,13.20
2019-05-07T17:57:03.106Z,12.92
2019-05-07T17:59:52.886Z,12.95
2019-05-07T18:03:02.609Z,12.70
2019-05-07T18:05:39.712Z,12.66
2019-05-07T18:08:12.513Z,12.41
2019-05-07T18:11:02.451Z,12.20
2019-05-07T18:13:39.434Z,12.07
2019-05-07T18:18:59.664Z,11.88
2019-05-07T18:21:49.456Z,11.88
2019-05-07T18:24:39.261Z,11.80
2019-05-07T18:29:53.895Z,11.53
2019-05-07T18:32:44.807Z,11.41
2019-05-07T18:35:34.646Z,11.35
2019-05-07T18:38:24.488Z,11.28
2019-05-07T18:41:14.327Z,11.14
2019-05-07T18:43:44.755Z,11.01
2019-05-07T18:46:34.141Z,10.93
2019-05-07T18:49:23.946Z,10.90
2019-05-07T18:52:13.768Z,10.86
2019-05-07T18:54:44.142Z,10.89
2019-05-07T18:57:33.981Z,10.86
2019-05-07T19:02:48.345Z,10.56
2019-05-07T19:05:19.465Z,10.52
2019-05-07T19:08:12.395Z,10.51
2019-05-07T19:10:55.251Z,10.40
2019-05-07T19:13:27.371Z,10.26
2019-05-07T19:16:18.182Z,10.14
2019-05-07T19:18:48.811Z,10.05
2019-05-07T19:21:19.198Z,9.96
2019-05-07T19:23:49.675Z,9.96
2019-05-07T19:26:20.049Z,10.03
2019-05-07T19:28:50.483Z,10.14
2019-05-07T19:31:21.985Z,10.19
2019-05-07T19:34:43.316Z,10.19
2019-05-07T19:37:33.119Z,10.11
2019-05-07T19:40:03.529Z,10.06
2019-05-07T19:42:33.907Z,10.13
2019-05-07T19:45:24.445Z,10.16
2019-05-07T19:48:15.233Z,10.20
2019-05-07T19:50:45.646Z,10.07
2019-05-07T19:53:16.025Z,9.97
2019-05-07T19:56:05.380Z,9.98
2019-05-07T19:58:35.769Z,9.93
2019-05-07T20:04:13.392Z,10.09
2019-05-07T20:06:55.929Z,9.90
2019-05-07T20:12:25.832Z,9.76
2019-05-07T20:14:56.247Z,9.69
2019-05-07T20:17:26.663Z,9.64
2019-05-07T20:20:17.509Z,9.58
2019-05-07T20:23:08.200Z,9.48
2019-05-07T20:25:58.008Z,9.23
2019-05-07T20:28:28.373Z,9.00
2019-05-07T20:30:58.839Z,8.91
2019-05-07T20:33:48.597Z,8.80
2019-05-07T20:36:20.634Z,8.63
2019-05-07T20:39:12.629Z,8.56
2019-05-07T20:41:59.913Z,8.48
2019-05-07T20:44:32.362Z,8.44
2019-05-07T20:47:07.894Z,8.38
2019-05-07T20:49:38.273Z,8.40
2019-05-07T20:52:28.057Z,8.31
2019-05-07T20:55:27.977Z,8.25
2019-05-07T20:57:55.060Z,8.18
2019-05-07T21:00:44.856Z,8.18
2019-05-07T21:03:34.182Z,8.18
2019-05-07T21:06:04.605Z,8.40
2019-05-07T21:08:35.087Z,8.35
2019-05-07T21:11:05.487Z,8.36
2019-05-07T21:13:35.883Z,8.29
2019-05-07T21:16:25.706Z,8.18
2019-05-07T21:19:15.507Z,8.29
2019-05-07T21:22:05.330Z,8.24
2019-05-07T21:24:55.160Z,8.25
2019-05-07T21:27:25.543Z,8.11
2019-05-07T21:29:55.979Z,8.01
2019-05-07T21:32:26.527Z,7.88
2019-05-07T21:35:16.319Z,7.82
2019-05-07T21:38:06.326Z,7.94
2019-05-07T21:40:36.801Z,7.82
2019-05-07T21:43:07.171Z,7.72
2019-05-07T21:45:56.954Z,7.67
2019-05-07T21:48:46.689Z,7.71
2019-05-07T21:51:18.710Z,7.86
2019-05-07T21:54:27.367Z,7.81
2019-05-07T21:57:16.622Z,7.71
2019-05-07T22:06:10.594Z,7.65
2019-05-07T22:08:52.519Z,7.56
2019-05-07T22:11:34.803Z,7.71
2019-05-07T22:14:05.386Z,7.68
2019-05-07T22:16:35.761Z,7.57
2019-05-07T22:19:25.532Z,7.52
2019-05-07T22:21:56.021Z,7.54
2019-05-07T22:24:26.384Z,7.50
2019-05-07T22:27:16.162Z,7.48
2019-05-07T22:33:08.806Z,7.38
2019-05-07T22:35:41.263Z,7.43
2019-05-07T22:38:32.385Z,7.26
2019-05-07T22:41:13.912Z,7.29
2019-05-07T22:43:45.944Z,7.21
2019-05-07T22:49:19.575Z,7.13
2019-05-07T22:51:49.976Z,7.01
2019-05-07T22:54:39.774Z,6.94
2019-05-07T23:03:04.486Z,7.07
2019-05-07T23:05:34.845Z,7.01
2019-05-07T23:08:05.234Z,6.98
2019-05-07T23:13:37.688Z,6.90
2019-05-07T23:16:08.242Z,6.83
2019-05-07T23:18:38.707Z,6.78
2019-05-07T23:21:09.144Z,6.79
2019-05-07T23:23:58.923Z,6.74
2019-05-07T23:26:29.364Z,6.66
2019-05-07T23:29:02.435Z,6.60
2019-05-07T23:31:44.298Z,6.53
2019-05-07T23:34:14.682Z,6.48
2019-05-07T23:36:45.136Z,6.46
2019-05-07T23:45:02.012Z,6.06
2019-05-07T23:47:44.715Z,5.94
2019-05-07T23:50:28.169Z,5.85
2019-05-07T23:52:58.797Z,5.80
2019-05-07T23:55:29.271Z,5.77
2019-05-07T23:57:59.703Z,5.69
